sensor_id;sensor_type;location;lat;lon;timestamp;temperature;humidity
18101;DHT22;9177;49.156;8.142;2023-06-24T00:00:43;26.00;94.60
18101;DHT22;9177;49.156;8.142;2023-06-24T00:03:10;26.00;94.60
18101;DHT22;9177;49.156;8.142;2023-06-24T00:05:42;26.00;94.60
18101;DHT22;9177;49.156;8.142;2023-06-24T00:08:15;26.00;94.60
18101;DHT22;9177;49.156;8.142;2023-06-24T00:10:44;26.00;94.60
18101;DHT22;9177;49.156;8.142;2023-06-24T00:13:12;26.00;94.70
18101;DHT22;9177;49.156;8.142;2023-06-24T00:15:39;26.00;94.70
18101;DHT22;9177;49.156;8.142;2023-06-24T00:18:10;26.00;94.70
18101;DHT22;9177;49.156;8.142;2023-06-24T00:20:37;26.00;94.70
18101;DHT22;9177;49.156;8.142;2023-06-24T00:23:05;26.00;94.70
18101;DHT22;9177;49.156;8.142;2023-06-24T00:25:32;26.00;94.70
18101;DHT22;9177;49.156;8.142;2023-06-24T00:27:59;26.00;94.70
18101;DHT22;9177;49.156;8.142;2023-06-24T00:30:26;26.00;94.80
18101;DHT22;9177;49.156;8.142;2023-06-24T00:32:53;26.00;94.80
18101;DHT22;9177;49.156;8.142;2023-06-24T00:35:21;26.00;94.80
18101;DHT22;9177;49.156;8.142;2023-06-24T00:37:49;26.00;94.80
18101;DHT22;9177;49.156;8.142;2023-06-24T00:40:16;25.90;94.80
18101;DHT22;9177;49.156;8.142;2023-06-24T00:42:44;26.00;94.80
18101;DHT22;9177;49.156;8.142;2023-06-24T00:45:12;26.00;94.90
18101;DHT22;9177;49.156;8.142;2023-06-24T00:47:39;26.00;94.80
18101;DHT22;9177;49.156;8.142;2023-06-24T00:50:07;26.00;94.90
18101;DHT22;9177;49.156;8.142;2023-06-24T00:52:36;26.00;94.90
18101;DHT22;9177;49.156;8.142;2023-06-24T00:55:08;25.90;94.80
18101;DHT22;9177;49.156;8.142;2023-06-24T00:57:35;25.90;94.80
18101;DHT22;9177;49.156;8.142;2023-06-24T01:00:05;25.90;94.90
18101;DHT22;9177;49.156;8.142;2023-06-24T01:02:34;25.90;94.90
18101;DHT22;9177;49.156;8.142;2023-06-24T01:05:02;25.90;94.90
18101;DHT22;9177;49.156;8.142;2023-06-24T01:07:32;25.90;94.90
18101;DHT22;9177;49.156;8.142;2023-06-24T01:10:02;25.90;94.90
18101;DHT22;9177;49.156;8.142;2023-06-24T01:12:32;25.90;94.90
18101;DHT22;9177;49.156;8.142;2023-06-24T01:14:59;25.90;94.90
18101;DHT22;9177;49.156;8.142;2023-06-24T01:17:31;25.90;94.90
18101;DHT22;9177;49.156;8.142;2023-06-24T01:20:04;25.90;95.00
18101;DHT22;9177;49.156;8.142;2023-06-24T01:22:59;25.90;95.00
18101;DHT22;9177;49.156;8.142;2023-06-24T01:25:44;25.90;95.00
18101;DHT22;9177;49.156;8.142;2023-06-24T01:28:40;25.90;95.00
18101;DHT22;9177;49.156;8.142;2023-06-24T01:31:30;25.90;95.00
18101;DHT22;9177;49.156;8.142;2023-06-24T01:34:02;25.90;95.00
18101;DHT22;9177;49.156;8.142;2023-06-24T01:36:36;25.90;95.00
18101;DHT22;9177;49.156;8.142;2023-06-24T01:39:08;25.90;95.00
18101;DHT22;9177;49.156;8.142;2023-06-24T01:41:40;25.90;95.00
18101;DHT22;9177;49.156;8.142;2023-06-24T01:44:09;25.90;95.00
18101;DHT22;9177;49.156;8.142;2023-06-24T01:46:39;25.90;95.00
18101;DHT22;9177;49.156;8.142;2023-06-24T01:49:13;25.90;95.00
18101;DHT22;9177;49.156;8.142;2023-06-24T01:51:41;25.90;95.00
18101;DHT22;9177;49.156;8.142;2023-06-24T01:54:13;25.80;95.00
18101;DHT22;9177;49.156;8.142;2023-06-24T01:56:42;25.90;95.00
18101;DHT22;9177;49.156;8.142;2023-06-24T01:59:10;25.90;95.00
18101;DHT22;9177;49.156;8.142;2023-06-24T02:01:39;25.80;95.00
18101;DHT22;9177;49.156;8.142;2023-06-24T02:04:08;25.90;95.10
18101;DHT22;9177;49.156;8.142;2023-06-24T02:06:36;25.80;95.10
18101;DHT22;9177;49.156;8.142;2023-06-24T02:09:04;25.80;95.00
18101;DHT22;9177;49.156;8.142;2023-06-24T02:11:33;25.80;95.10
18101;DHT22;9177;49.156;8.142;2023-06-24T02:14:01;25.80;95.10
18101;DHT22;9177;49.156;8.142;2023-06-24T02:16:29;25.80;95.10
18101;DHT22;9177;49.156;8.142;2023-06-24T02:18:58;25.80;95.10
18101;DHT22;9177;49.156;8.142;2023-06-24T02:21:28;25.80;95.10
18101;DHT22;9177;49.156;8.142;2023-06-24T02:23:55;25.80;95.10
18101;DHT22;9177;49.156;8.142;2023-06-24T02:26:23;25.80;95.10
18101;DHT22;9177;49.156;8.142;2023-06-24T02:28:52;25.80;95.10
18101;DHT22;9177;49.156;8.142;2023-06-24T02:31:19;25.80;95.10
18101;DHT22;9177;49.156;8.142;2023-06-24T02:33:46;25.80;95.10
18101;DHT22;9177;49.156;8.142;2023-06-24T02:36:15;25.80;95.10
18101;DHT22;9177;49.156;8.142;2023-06-24T02:38:41;25.80;95.10
18101;DHT22;9177;49.156;8.142;2023-06-24T02:41:08;25.80;95.10
18101;DHT22;9177;49.156;8.142;2023-06-24T02:43:35;25.80;95.10
18101;DHT22;9177;49.156;8.142;2023-06-24T02:46:03;25.80;95.10
18101;DHT22;9177;49.156;8.142;2023-06-24T02:48:32;25.80;95.10
18101;DHT22;9177;49.156;8.142;2023-06-24T02:51:02;25.80;95.10
18101;DHT22;9177;49.156;8.142;2023-06-24T02:53:31;25.80;95.20
18101;DHT22;9177;49.156;8.142;2023-06-24T02:55:59;25.80;95.10
18101;DHT22;9177;49.156;8.142;2023-06-24T02:58:26;25.80;95.10
18101;DHT22;9177;49.156;8.142;2023-06-24T03:00:58;25.80;95.10
18101;DHT22;9177;49.156;8.142;2023-06-24T03:03:26;25.80;95.10
18101;DHT22;9177;49.156;8.142;2023-06-24T03:05:54;25.80;95.20
18101;DHT22;9177;49.156;8.142;2023-06-24T03:08:22;25.80;95.20
18101;DHT22;9177;49.156;8.142;2023-06-24T03:10:54;25.80;95.20
18101;DHT22;9177;49.156;8.142;2023-06-24T03:13:21;25.70;95.10
18101;DHT22;9177;49.156;8.142;2023-06-24T03:15:48;25.80;95.20
18101;DHT22;9177;49.156;8.142;2023-06-24T03:18:16;25.70;95.10
18101;DHT22;9177;49.156;8.142;2023-06-24T03:20:43;25.70;95.20
18101;DHT22;9177;49.156;8.142;2023-06-24T03:23:10;25.70;95.20
18101;DHT22;9177;49.156;8.142;2023-06-24T03:25:37;25.70;95.20
18101;DHT22;9177;49.156;8.142;2023-06-24T03:28:05;25.70;95.20
18101;DHT22;9177;49.156;8.142;2023-06-24T03:30:33;25.70;95.20
18101;DHT22;9177;49.156;8.142;2023-06-24T03:33:00;25.70;95.20
18101;DHT22;9177;49.156;8.142;2023-06-24T03:35:27;25.70;95.20
18101;DHT22;9177;49.156;8.142;2023-06-24T03:37:55;25.70;95.20
18101;DHT22;9177;49.156;8.142;2023-06-24T03:40:22;25.70;95.60
18101;DHT22;9177;49.156;8.142;2023-06-24T03:42:48;25.70;95.20
18101;DHT22;9177;49.156;8.142;2023-06-24T03:45:16;25.70;95.20
18101;DHT22;9177;49.156;8.142;2023-06-24T03:47:43;25.70;95.20
18101;DHT22;9177;49.156;8.142;2023-06-24T03:50:10;25.70;95.20
18101;DHT22;9177;49.156;8.142;2023-06-24T03:52:37;25.70;95.20
18101;DHT22;9177;49.156;8.142;2023-06-24T03:55:04;25.70;95.20
18101;DHT22;9177;49.156;8.142;2023-06-24T03:57:31;25.70;95.20
18101;DHT22;9177;49.156;8.142;2023-06-24T03:59:58;25.70;95.20
18101;DHT22;9177;49.156;8.142;2023-06-24T04:02:26;25.70;95.20
18101;DHT22;9177;49.156;8.142;2023-06-24T04:04:54;25.70;95.20
18101;DHT22;9177;49.156;8.142;2023-06-24T04:07:21;25.70;95.20
18101;DHT22;9177;49.156;8.142;2023-06-24T04:09:54;25.70;95.20
18101;DHT22;9177;49.156;8.142;2023-06-24T04:12:21;25.70;95.20
18101;DHT22;9177;49.156;8.142;2023-06-24T04:14:48;25.70;95.20
18101;DHT22;9177;49.156;8.142;2023-06-24T04:17:15;25.70;95.20
18101;DHT22;9177;49.156;8.142;2023-06-24T04:19:44;25.70;95.20
18101;DHT22;9177;49.156;8.142;2023-06-24T04:22:11;25.70;95.20
18101;DHT22;9177;49.156;8.142;2023-06-24T04:24:38;25.70;95.20
18101;DHT22;9177;49.156;8.142;2023-06-24T04:27:07;25.70;95.20
18101;DHT22;9177;49.156;8.142;2023-06-24T04:29:33;25.70;95.30
18101;DHT22;9177;49.156;8.142;2023-06-24T04:32:00;25.70;95.30
18101;DHT22;9177;49.156;8.142;2023-06-24T04:34:27;25.70;95.30
18101;DHT22;9177;49.156;8.142;2023-06-24T04:36:55;25.70;95.30
18101;DHT22;9177;49.156;8.142;2023-06-24T04:39:22;25.70;95.30
18101;DHT22;9177;49.156;8.142;2023-06-24T04:41:49;25.70;95.30
18101;DHT22;9177;49.156;8.142;2023-06-24T04:44:18;25.70;95.30
18101;DHT22;9177;49.156;8.142;2023-06-24T04:46:46;25.70;95.30
18101;DHT22;9177;49.156;8.142;2023-06-24T04:49:13;25.70;95.30
18101;DHT22;9177;49.156;8.142;2023-06-24T04:51:40;25.70;95.30
18101;DHT22;9177;49.156;8.142;2023-06-24T04:54:10;25.70;95.30
18101;DHT22;9177;49.156;8.142;2023-06-24T04:56:37;25.70;95.30
18101;DHT22;9177;49.156;8.142;2023-06-24T04:59:04;25.70;95.30
18101;DHT22;9177;49.156;8.142;2023-06-24T05:01:31;25.70;95.30
18101;DHT22;9177;49.156;8.142;2023-06-24T05:03:58;25.70;95.30
18101;DHT22;9177;49.156;8.142;2023-06-24T05:06:25;25.70;95.30
18101;DHT22;9177;49.156;8.142;2023-06-24T05:08:52;25.70;95.30
18101;DHT22;9177;49.156;8.142;2023-06-24T05:11:20;25.70;95.30
18101;DHT22;9177;49.156;8.142;2023-06-24T05:13:47;25.70;95.30
18101;DHT22;9177;49.156;8.142;2023-06-24T05:16:14;25.70;95.70
18101;DHT22;9177;49.156;8.142;2023-06-24T05:18:44;25.70;95.30
18101;DHT22;9177;49.156;8.142;2023-06-24T05:21:11;25.70;95.30
18101;DHT22;9177;49.156;8.142;2023-06-24T05:23:37;25.70;95.30
18101;DHT22;9177;49.156;8.142;2023-06-24T05:26:04;25.70;95.30
18101;DHT22;9177;49.156;8.142;2023-06-24T05:28:32;25.70;95.30
18101;DHT22;9177;49.156;8.142;2023-06-24T05:30:59;25.70;95.30
18101;DHT22;9177;49.156;8.142;2023-06-24T05:33:26;25.70;95.30
18101;DHT22;9177;49.156;8.142;2023-06-24T05:35:53;25.70;95.30
18101;DHT22;9177;49.156;8.142;2023-06-24T05:38:20;25.70;95.30
18101;DHT22;9177;49.156;8.142;2023-06-24T05:40:46;25.70;95.30
18101;DHT22;9177;49.156;8.142;2023-06-24T05:43:13;25.70;95.30
18101;DHT22;9177;49.156;8.142;2023-06-24T05:45:42;25.70;95.30
18101;DHT22;9177;49.156;8.142;2023-06-24T05:48:09;25.70;95.30
18101;DHT22;9177;49.156;8.142;2023-06-24T05:50:36;25.70;95.30
18101;DHT22;9177;49.156;8.142;2023-06-24T05:53:03;25.70;95.30
18101;DHT22;9177;49.156;8.142;2023-06-24T05:55:30;25.70;95.30
18101;DHT22;9177;49.156;8.142;2023-06-24T05:57:57;25.70;95.30
18101;DHT22;9177;49.156;8.142;2023-06-24T06:00:23;25.70;95.30
18101;DHT22;9177;49.156;8.142;2023-06-24T06:02:52;25.70;95.30
18101;DHT22;9177;49.156;8.142;2023-06-24T06:05:18;25.70;95.40
18101;DHT22;9177;49.156;8.142;2023-06-24T06:07:45;25.70;95.40
18101;DHT22;9177;49.156;8.142;2023-06-24T06:10:13;25.70;95.40
18101;DHT22;9177;49.156;8.142;2023-06-24T06:12:42;25.70;95.40
18101;DHT22;9177;49.156;8.142;2023-06-24T06:15:10;25.70;95.40
18101;DHT22;9177;49.156;8.142;2023-06-24T06:17:37;25.70;95.40
18101;DHT22;9177;49.156;8.142;2023-06-24T06:20:06;25.70;95.40
18101;DHT22;9177;49.156;8.142;2023-06-24T06:22:33;25.70;95.40
18101;DHT22;9177;49.156;8.142;2023-06-24T06:25:03;25.70;95.40
18101;DHT22;9177;49.156;8.142;2023-06-24T06:27:30;25.70;95.40
18101;DHT22;9177;49.156;8.142;2023-06-24T06:29:57;25.70;95.50
18101;DHT22;9177;49.156;8.142;2023-06-24T06:32:24;25.70;95.50
18101;DHT22;9177;49.156;8.142;2023-06-24T06:34:51;25.70;95.50
18101;DHT22;9177;49.156;8.142;2023-06-24T06:37:19;25.70;95.50
18101;DHT22;9177;49.156;8.142;2023-06-24T06:39:46;25.70;95.50
18101;DHT22;9177;49.156;8.142;2023-06-24T06:42:13;25.70;95.50
18101;DHT22;9177;49.156;8.142;2023-06-24T06:44:40;25.70;95.50
18101;DHT22;9177;49.156;8.142;2023-06-24T06:47:07;25.70;95.50
18101;DHT22;9177;49.156;8.142;2023-06-24T06:49:34;25.70;95.50
18101;DHT22;9177;49.156;8.142;2023-06-24T06:52:06;25.70;95.50
18101;DHT22;9177;49.156;8.142;2023-06-24T06:54:34;25.70;95.60
18101;DHT22;9177;49.156;8.142;2023-06-24T06:57:01;25.70;95.60
18101;DHT22;9177;49.156;8.142;2023-06-24T06:59:29;25.70;95.70
18101;DHT22;9177;49.156;8.142;2023-06-24T07:01:56;25.70;95.70
18101;DHT22;9177;49.156;8.142;2023-06-24T07:04:23;25.70;95.70
18101;DHT22;9177;49.156;8.142;2023-06-24T07:06:50;25.70;95.70
18101;DHT22;9177;49.156;8.142;2023-06-24T07:09:17;25.70;95.70
18101;DHT22;9177;49.156;8.142;2023-06-24T07:11:46;25.70;95.70
18101;DHT22;9177;49.156;8.142;2023-06-24T07:14:13;25.70;95.70
18101;DHT22;9177;49.156;8.142;2023-06-24T07:16:39;25.80;95.80
18101;DHT22;9177;49.156;8.142;2023-06-24T07:19:06;25.80;95.80
18101;DHT22;9177;49.156;8.142;2023-06-24T07:21:33;25.80;95.90
18101;DHT22;9177;49.156;8.142;2023-06-24T07:24:00;25.80;95.80
18101;DHT22;9177;49.156;8.142;2023-06-24T07:26:27;25.80;95.70
18101;DHT22;9177;49.156;8.142;2023-06-24T07:28:58;25.90;95.70
18101;DHT22;9177;49.156;8.142;2023-06-24T07:31:28;25.90;95.60
18101;DHT22;9177;49.156;8.142;2023-06-24T07:33:55;25.90;95.60
18101;DHT22;9177;49.156;8.142;2023-06-24T07:36:21;25.90;95.60
18101;DHT22;9177;49.156;8.142;2023-06-24T07:38:48;25.90;95.60
18101;DHT22;9177;49.156;8.142;2023-06-24T07:41:16;26.00;95.50
18101;DHT22;9177;49.156;8.142;2023-06-24T07:43:43;26.00;95.50
18101;DHT22;9177;49.156;8.142;2023-06-24T07:46:11;26.00;95.50
18101;DHT22;9177;49.156;8.142;2023-06-24T07:48:38;26.00;95.50
18101;DHT22;9177;49.156;8.142;2023-06-24T07:51:05;26.00;95.50
18101;DHT22;9177;49.156;8.142;2023-06-24T07:53:31;26.10;95.50
18101;DHT22;9177;49.156;8.142;2023-06-24T07:56:01;26.10;95.60
18101;DHT22;9177;49.156;8.142;2023-06-24T07:58:28;26.10;95.50
18101;DHT22;9177;49.156;8.142;2023-06-24T08:00:57;26.10;95.50
18101;DHT22;9177;49.156;8.142;2023-06-24T08:03:25;26.10;95.50
18101;DHT22;9177;49.156;8.142;2023-06-24T08:05:52;26.10;95.50
18101;DHT22;9177;49.156;8.142;2023-06-24T08:08:19;26.20;95.60
18101;DHT22;9177;49.156;8.142;2023-06-24T08:10:46;26.10;95.50
18101;DHT22;9177;49.156;8.142;2023-06-24T08:13:13;26.20;95.50
18101;DHT22;9177;49.156;8.142;2023-06-24T08:15:40;26.20;95.50
18101;DHT22;9177;49.156;8.142;2023-06-24T08:18:07;26.20;95.50
18101;DHT22;9177;49.156;8.142;2023-06-24T08:20:36;26.20;95.50
18101;DHT22;9177;49.156;8.142;2023-06-24T08:23:03;26.20;95.50
18101;DHT22;9177;49.156;8.142;2023-06-24T08:25:30;26.20;95.40
18101;DHT22;9177;49.156;8.142;2023-06-24T08:27:57;26.20;95.40
18101;DHT22;9177;49.156;8.142;2023-06-24T08:30:24;26.20;95.40
18101;DHT22;9177;49.156;8.142;2023-06-24T08:32:52;26.20;95.40
18101;DHT22;9177;49.156;8.142;2023-06-24T08:35:19;26.20;95.40
18101;DHT22;9177;49.156;8.142;2023-06-24T08:37:47;26.30;95.40
18101;DHT22;9177;49.156;8.142;2023-06-24T08:40:14;26.20;95.60
18101;DHT22;9177;49.156;8.142;2023-06-24T08:42:43;26.30;95.20
18101;DHT22;9177;49.156;8.142;2023-06-24T08:45:10;26.30;95.20
18101;DHT22;9177;49.156;8.142;2023-06-24T08:47:37;26.30;95.10
18101;DHT22;9177;49.156;8.142;2023-06-24T08:50:11;26.30;95.00
18101;DHT22;9177;49.156;8.142;2023-06-24T08:52:42;26.30;94.90
18101;DHT22;9177;49.156;8.142;2023-06-24T08:55:13;26.30;94.90
18101;DHT22;9177;49.156;8.142;2023-06-24T08:57:40;26.30;94.90
18101;DHT22;9177;49.156;8.142;2023-06-24T09:00:08;26.30;94.80
18101;DHT22;9177;49.156;8.142;2023-06-24T09:02:36;26.30;94.80
18101;DHT22;9177;49.156;8.142;2023-06-24T09:05:05;26.30;94.80
18101;DHT22;9177;49.156;8.142;2023-06-24T09:07:32;26.40;94.80
18101;DHT22;9177;49.156;8.142;2023-06-24T09:09:59;26.40;94.70
18101;DHT22;9177;49.156;8.142;2023-06-24T09:12:31;26.40;94.70
18101;DHT22;9177;49.156;8.142;2023-06-24T09:14:59;26.40;94.60
18101;DHT22;9177;49.156;8.142;2023-06-24T09:17:26;26.40;94.50
18101;DHT22;9177;49.156;8.142;2023-06-24T09:19:54;26.40;94.50
18101;DHT22;9177;49.156;8.142;2023-06-24T09:22:30;26.40;94.40
18101;DHT22;9177;49.156;8.142;2023-06-24T09:25:00;26.40;94.40
18101;DHT22;9177;49.156;8.142;2023-06-24T09:27:31;26.40;94.30
18101;DHT22;9177;49.156;8.142;2023-06-24T09:29:59;26.40;94.30
18101;DHT22;9177;49.156;8.142;2023-06-24T09:32:29;26.40;94.30
18101;DHT22;9177;49.156;8.142;2023-06-24T09:34:57;26.40;94.30
18101;DHT22;9177;49.156;8.142;2023-06-24T09:37:25;26.40;94.30
18101;DHT22;9177;49.156;8.142;2023-06-24T09:39:56;26.40;94.20
18101;DHT22;9177;49.156;8.142;2023-06-24T09:42:24;26.40;94.20
18101;DHT22;9177;49.156;8.142;2023-06-24T09:44:56;26.50;94.20
18101;DHT22;9177;49.156;8.142;2023-06-24T09:47:23;26.50;94.20
18101;DHT22;9177;49.156;8.142;2023-06-24T09:49:51;26.50;94.20
18101;DHT22;9177;49.156;8.142;2023-06-24T09:52:19;26.50;94.20
18101;DHT22;9177;49.156;8.142;2023-06-24T09:54:49;26.50;94.20
18101;DHT22;9177;49.156;8.142;2023-06-24T09:57:18;26.50;94.20
18101;DHT22;9177;49.156;8.142;2023-06-24T09:59:48;26.50;94.20
18101;DHT22;9177;49.156;8.142;2023-06-24T10:02:18;26.50;94.20
18101;DHT22;9177;49.156;8.142;2023-06-24T10:04:45;26.50;94.20
18101;DHT22;9177;49.156;8.142;2023-06-24T10:07:13;26.50;94.20
18101;DHT22;9177;49.156;8.142;2023-06-24T10:09:42;26.50;94.20
18101;DHT22;9177;49.156;8.142;2023-06-24T10:12:10;26.50;94.20
18101;DHT22;9177;49.156;8.142;2023-06-24T10:14:37;26.50;94.20
18101;DHT22;9177;49.156;8.142;2023-06-24T10:17:05;26.50;94.20
18101;DHT22;9177;49.156;8.142;2023-06-24T10:19:39;26.50;94.20
18101;DHT22;9177;49.156;8.142;2023-06-24T10:22:10;26.50;94.20
18101;DHT22;9177;49.156;8.142;2023-06-24T10:24:39;26.50;94.20
18101;DHT22;9177;49.156;8.142;2023-06-24T10:27:09;26.50;94.20
18101;DHT22;9177;49.156;8.142;2023-06-24T10:29:41;26.50;94.20
18101;DHT22;9177;49.156;8.142;2023-06-24T10:32:11;26.60;94.20
18101;DHT22;9177;49.156;8.142;2023-06-24T10:34:41;26.60;94.30
18101;DHT22;9177;49.156;8.142;2023-06-24T10:37:11;26.60;94.30
18101;DHT22;9177;49.156;8.142;2023-06-24T10:39:49;26.60;94.30
18101;DHT22;9177;49.156;8.142;2023-06-24T10:42:29;26.60;94.30
18101;DHT22;9177;49.156;8.142;2023-06-24T10:44:57;26.60;94.30
18101;DHT22;9177;49.156;8.142;2023-06-24T10:47:26;26.60;94.30
18101;DHT22;9177;49.156;8.142;2023-06-24T10:49:57;26.60;94.30
18101;DHT22;9177;49.156;8.142;2023-06-24T10:52:24;26.60;94.20
18101;DHT22;9177;49.156;8.142;2023-06-24T10:54:52;26.60;94.20
18101;DHT22;9177;49.156;8.142;2023-06-24T10:57:26;26.60;94.30
18101;DHT22;9177;49.156;8.142;2023-06-24T10:59:54;26.60;94.30
18101;DHT22;9177;49.156;8.142;2023-06-24T11:02:23;26.60;94.30
18101;DHT22;9177;49.156;8.142;2023-06-24T11:04:51;26.60;94.30
18101;DHT22;9177;49.156;8.142;2023-06-24T11:07:21;26.60;94.30
18101;DHT22;9177;49.156;8.142;2023-06-24T11:09:49;26.60;94.40
18101;DHT22;9177;49.156;8.142;2023-06-24T11:12:17;26.60;94.40
18101;DHT22;9177;49.156;8.142;2023-06-24T11:14:45;26.60;94.30
18101;DHT22;9177;49.156;8.142;2023-06-24T11:17:12;26.60;94.30
18101;DHT22;9177;49.156;8.142;2023-06-24T11:19:39;26.60;94.40
18101;DHT22;9177;49.156;8.142;2023-06-24T11:22:07;26.70;94.40
18101;DHT22;9177;49.156;8.142;2023-06-24T11:24:36;26.70;94.50
18101;DHT22;9177;49.156;8.142;2023-06-24T11:27:05;26.70;94.50
18101;DHT22;9177;49.156;8.142;2023-06-24T11:29:33;26.70;94.50
18101;DHT22;9177;49.156;8.142;2023-06-24T11:32:01;26.60;94.50
18101;DHT22;9177;49.156;8.142;2023-06-24T11:34:28;26.60;94.50
18101;DHT22;9177;49.156;8.142;2023-06-24T11:36:55;26.60;94.50
18101;DHT22;9177;49.156;8.142;2023-06-24T11:39:23;26.60;94.50
18101;DHT22;9177;49.156;8.142;2023-06-24T11:41:53;26.60;94.60
18101;DHT22;9177;49.156;8.142;2023-06-24T11:44:21;26.60;94.60
18101;DHT22;9177;49.156;8.142;2023-06-24T11:46:50;26.60;94.60
18101;DHT22;9177;49.156;8.142;2023-06-24T11:49:18;26.60;94.50
18101;DHT22;9177;49.156;8.142;2023-06-24T11:51:47;26.60;94.60
18101;DHT22;9177;49.156;8.142;2023-06-24T11:54:19;26.60;94.60
18101;DHT22;9177;49.156;8.142;2023-06-24T11:56:50;26.70;94.70
18101;DHT22;9177;49.156;8.142;2023-06-24T11:59:21;26.70;94.60
18101;DHT22;9177;49.156;8.142;2023-06-24T12:01:55;26.70;94.60
18101;DHT22;9177;49.156;8.142;2023-06-24T12:04:27;26.70;94.70
18101;DHT22;9177;49.156;8.142;2023-06-24T12:06:55;26.80;94.70
18101;DHT22;9177;49.156;8.142;2023-06-24T12:09:23;26.80;94.70
18101;DHT22;9177;49.156;8.142;2023-06-24T12:11:50;26.80;94.70
18101;DHT22;9177;49.156;8.142;2023-06-24T12:14:19;26.80;94.60
18101;DHT22;9177;49.156;8.142;2023-06-24T12:16:47;26.80;94.60
18101;DHT22;9177;49.156;8.142;2023-06-24T12:19:14;26.90;94.50
18101;DHT22;9177;49.156;8.142;2023-06-24T12:21:41;26.90;94.50
18101;DHT22;9177;49.156;8.142;2023-06-24T12:24:08;26.90;94.50
18101;DHT22;9177;49.156;8.142;2023-06-24T12:26:35;26.90;94.40
18101;DHT22;9177;49.156;8.142;2023-06-24T12:29:03;27.00;94.40
18101;DHT22;9177;49.156;8.142;2023-06-24T12:31:32;27.00;94.30
18101;DHT22;9177;49.156;8.142;2023-06-24T12:33:59;27.00;94.30
18101;DHT22;9177;49.156;8.142;2023-06-24T12:36:26;27.10;94.30
18101;DHT22;9177;49.156;8.142;2023-06-24T12:38:53;27.10;94.30
18101;DHT22;9177;49.156;8.142;2023-06-24T12:41:21;27.10;94.20
18101;DHT22;9177;49.156;8.142;2023-06-24T12:43:48;27.10;94.10
18101;DHT22;9177;49.156;8.142;2023-06-24T12:46:15;27.20;94.00
18101;DHT22;9177;49.156;8.142;2023-06-24T12:48:44;27.30;94.10
18101;DHT22;9177;49.156;8.142;2023-06-24T12:51:11;27.30;94.10
18101;DHT22;9177;49.156;8.142;2023-06-24T12:53:38;27.30;94.40
18101;DHT22;9177;49.156;8.142;2023-06-24T12:56:05;27.30;94.00
18101;DHT22;9177;49.156;8.142;2023-06-24T12:58:34;27.30;93.90
18101;DHT22;9177;49.156;8.142;2023-06-24T13:01:01;27.30;93.90
18101;DHT22;9177;49.156;8.142;2023-06-24T13:03:28;27.40;93.80
18101;DHT22;9177;49.156;8.142;2023-06-24T13:05:57;27.40;93.80
18101;DHT22;9177;49.156;8.142;2023-06-24T13:08:24;27.40;93.80
18101;DHT22;9177;49.156;8.142;2023-06-24T13:10:51;27.50;93.80
18101;DHT22;9177;49.156;8.142;2023-06-24T13:13:18;27.50;94.10
18101;DHT22;9177;49.156;8.142;2023-06-24T13:15:46;27.50;93.70
18101;DHT22;9177;49.156;8.142;2023-06-24T13:18:13;27.50;93.60
18101;DHT22;9177;49.156;8.142;2023-06-24T13:20:40;27.60;93.60
18101;DHT22;9177;49.156;8.142;2023-06-24T13:23:09;27.60;93.60
18101;DHT22;9177;49.156;8.142;2023-06-24T13:25:36;27.60;93.50
18101;DHT22;9177;49.156;8.142;2023-06-24T13:28:04;27.60;93.50
18101;DHT22;9177;49.156;8.142;2023-06-24T13:30:31;27.60;93.40
18101;DHT22;9177;49.156;8.142;2023-06-24T13:32:58;27.70;93.40
18101;DHT22;9177;49.156;8.142;2023-06-24T13:35:26;27.70;93.30
18101;DHT22;9177;49.156;8.142;2023-06-24T13:37:53;27.70;93.30
18101;DHT22;9177;49.156;8.142;2023-06-24T13:40:22;27.70;93.30
18101;DHT22;9177;49.156;8.142;2023-06-24T13:42:50;27.70;93.20
18101;DHT22;9177;49.156;8.142;2023-06-24T13:45:17;27.50;93.40
18101;DHT22;9177;49.156;8.142;2023-06-24T13:47:45;27.30;93.60
18101;DHT22;9177;49.156;8.142;2023-06-24T13:50:12;27.30;93.70
18101;DHT22;9177;49.156;8.142;2023-06-24T13:52:40;27.20;93.70
18101;DHT22;9177;49.156;8.142;2023-06-24T13:55:08;27.20;93.80
18101;DHT22;9177;49.156;8.142;2023-06-24T13:57:37;27.20;93.80
18101;DHT22;9177;49.156;8.142;2023-06-24T14:00:05;27.20;93.90
18101;DHT22;9177;49.156;8.142;2023-06-24T14:02:32;27.20;93.80
18101;DHT22;9177;49.156;8.142;2023-06-24T14:05:00;27.20;93.90
18101;DHT22;9177;49.156;8.142;2023-06-24T14:07:27;27.20;93.90
18101;DHT22;9177;49.156;8.142;2023-06-24T14:09:55;27.20;94.00
18101;DHT22;9177;49.156;8.142;2023-06-24T14:12:22;27.20;94.00
18101;DHT22;9177;49.156;8.142;2023-06-24T14:14:51;27.20;94.10
18101;DHT22;9177;49.156;8.142;2023-06-24T14:17:18;27.10;94.10
18101;DHT22;9177;49.156;8.142;2023-06-24T14:19:45;27.20;94.10
18101;DHT22;9177;49.156;8.142;2023-06-24T14:22:12;27.20;94.10
18101;DHT22;9177;49.156;8.142;2023-06-24T14:24:40;27.20;94.20
18101;DHT22;9177;49.156;8.142;2023-06-24T14:27:07;27.20;94.10
18101;DHT22;9177;49.156;8.142;2023-06-24T14:29:34;27.40;94.00
18101;DHT22;9177;49.156;8.142;2023-06-24T14:32:04;27.40;94.00
18101;DHT22;9177;49.156;8.142;2023-06-24T14:34:31;27.40;94.00
18101;DHT22;9177;49.156;8.142;2023-06-24T14:36:58;27.40;94.00
18101;DHT22;9177;49.156;8.142;2023-06-24T14:39:25;27.30;94.10
18101;DHT22;9177;49.156;8.142;2023-06-24T14:41:54;27.30;94.20
18101;DHT22;9177;49.156;8.142;2023-06-24T14:44:21;27.30;94.30
18101;DHT22;9177;49.156;8.142;2023-06-24T14:46:48;27.30;94.30
18101;DHT22;9177;49.156;8.142;2023-06-24T14:49:17;27.30;94.30
18101;DHT22;9177;49.156;8.142;2023-06-24T14:51:44;27.40;94.20
18101;DHT22;9177;49.156;8.142;2023-06-24T14:54:11;27.30;94.30
18101;DHT22;9177;49.156;8.142;2023-06-24T14:56:38;27.40;94.30
18101;DHT22;9177;49.156;8.142;2023-06-24T14:59:05;27.30;94.40
18101;DHT22;9177;49.156;8.142;2023-06-24T15:01:33;27.20;94.40
18101;DHT22;9177;49.156;8.142;2023-06-24T15:04:00;27.30;94.40
18101;DHT22;9177;49.156;8.142;2023-06-24T15:06:28;27.30;94.50
18101;DHT22;9177;49.156;8.142;2023-06-24T15:08:55;27.30;94.70
18101;DHT22;9177;49.156;8.142;2023-06-24T15:11:22;27.50;94.70
18101;DHT22;9177;49.156;8.142;2023-06-24T15:13:49;27.40;94.70
18101;DHT22;9177;49.156;8.142;2023-06-24T15:16:16;27.30;95.00
18101;DHT22;9177;49.156;8.142;2023-06-24T15:18:47;27.40;94.90
18101;DHT22;9177;49.156;8.142;2023-06-24T15:21:15;27.60;94.70
18101;DHT22;9177;49.156;8.142;2023-06-24T15:23:44;27.40;94.60
18101;DHT22;9177;49.156;8.142;2023-06-24T15:26:11;27.60;94.50
18101;DHT22;9177;49.156;8.142;2023-06-24T15:28:38;27.70;94.30
18101;DHT22;9177;49.156;8.142;2023-06-24T15:31:06;27.70;94.10
18101;DHT22;9177;49.156;8.142;2023-06-24T15:33:32;27.70;94.10
18101;DHT22;9177;49.156;8.142;2023-06-24T15:36:00;27.50;94.20
18101;DHT22;9177;49.156;8.142;2023-06-24T15:38:27;27.60;94.10
18101;DHT22;9177;49.156;8.142;2023-06-24T15:40:55;27.70;94.00
18101;DHT22;9177;49.156;8.142;2023-06-24T15:43:23;27.80;93.90
18101;DHT22;9177;49.156;8.142;2023-06-24T15:45:51;27.80;93.80
18101;DHT22;9177;49.156;8.142;2023-06-24T15:48:18;27.80;93.80
18101;DHT22;9177;49.156;8.142;2023-06-24T15:50:46;27.70;93.90